sensor_id;sensor_type;location;lat;lon;timestamp;P1;durP1;ratioP1;P2;durP2;ratioP2
6127;SDS011;7073;42.672;23.256;2024-02-28T03:24:12;30.27;;;12.18;;
6127;SDS011;7073;42.672;23.256;2024-02-28T04:45:02;22.75;;;10.48;;
6127;SDS011;7073;42.672;23.256;2024-02-28T05:18:13;31.27;;;14.80;;
6127;SDS011;7073;42.672;23.256;2024-02-28T05:23:58;32.75;;;14.02;;
6127;SDS011;7073;42.672;23.256;2024-02-28T05:26:44;27.38;;;13.10;;
6127;SDS011;7073;42.672;23.256;2024-02-28T05:29:24;42.92;;;18.42;;
6127;SDS011;7073;42.672;23.256;2024-02-28T05:31:58;22.50;;;11.85;;
6127;SDS011;7073;42.672;23.256;2024-02-28T05:34:42;15.23;;;7.35;;
6127;SDS011;7073;42.672;23.256;2024-02-28T05:37:17;27.23;;;13.85;;
6127;SDS011;7073;42.672;23.256;2024-02-28T05:48:57;29.00;;;14.52;;
6127;SDS011;7073;42.672;23.256;2024-02-28T06:38:41;34.22;;;16.92;;
6127;SDS011;7073;42.672;23.256;2024-02-28T06:41:30;35.75;;;16.73;;
6127;SDS011;7073;42.672;23.256;2024-02-28T06:44:08;30.77;;;14.68;;
6127;SDS011;7073;42.672;23.256;2024-02-28T06:46:41;34.63;;;16.90;;
6127;SDS011;7073;42.672;23.256;2024-02-28T06:49:32;33.63;;;15.20;;
6127;SDS011;7073;42.672;23.256;2024-02-28T06:52:14;30.50;;;15.57;;
6127;SDS011;7073;42.672;23.256;2024-02-28T07:10:03;30.15;;;14.10;;
6127;SDS011;7073;42.672;23.256;2024-02-28T07:12:45;32.33;;;15.07;;
6127;SDS011;7073;42.672;23.256;2024-02-28T07:15:18;33.08;;;15.13;;
6127;SDS011;7073;42.672;23.256;2024-02-28T07:17:52;37.08;;;16.45;;
6127;SDS011;7073;42.672;23.256;2024-02-28T07:20:30;30.38;;;15.85;;
6127;SDS011;7073;42.672;23.256;2024-02-28T07:23:12;34.17;;;16.95;;
6127;SDS011;7073;42.672;23.256;2024-02-28T07:25:50;33.55;;;16.30;;
6127;SDS011;7073;42.672;23.256;2024-02-28T07:28:22;28.98;;;13.98;;
6127;SDS011;7073;42.672;23.256;2024-02-28T07:30:50;32.58;;;14.95;;
6127;SDS011;7073;42.672;23.256;2024-02-28T07:33:22;35.30;;;14.90;;
6127;SDS011;7073;42.672;23.256;2024-02-28T07:35:52;33.03;;;15.90;;
6127;SDS011;7073;42.672;23.256;2024-02-28T07:38:19;30.33;;;16.02;;
6127;SDS011;7073;42.672;23.256;2024-02-28T07:41:13;28.98;;;14.18;;
6127;SDS011;7073;42.672;23.256;2024-02-28T07:43:43;38.28;;;17.25;;
6127;SDS011;7073;42.672;23.256;2024-02-28T07:46:21;31.35;;;17.00;;
6127;SDS011;7073;42.672;23.256;2024-02-28T07:48:49;34.78;;;16.15;;
6127;SDS011;7073;42.672;23.256;2024-02-28T07:51:17;29.80;;;15.05;;
6127;SDS011;7073;42.672;23.256;2024-02-28T07:53:47;29.13;;;14.88;;
6127;SDS011;7073;42.672;23.256;2024-02-28T07:56:23;26.27;;;14.05;;
6127;SDS011;7073;42.672;23.256;2024-02-28T07:58:53;27.35;;;13.73;;
6127;SDS011;7073;42.672;23.256;2024-02-28T08:01:28;31.08;;;14.73;;
6127;SDS011;7073;42.672;23.256;2024-02-28T08:03:56;25.10;;;13.82;;
6127;SDS011;7073;42.672;23.256;2024-02-28T08:06:23;28.60;;;14.70;;
6127;SDS011;7073;42.672;23.256;2024-02-28T08:08:50;28.52;;;14.35;;
6127;SDS011;7073;42.672;23.256;2024-02-28T08:11:21;30.08;;;14.60;;
6127;SDS011;7073;42.672;23.256;2024-02-28T08:13:53;32.22;;;13.20;;
6127;SDS011;7073;42.672;23.256;2024-02-28T08:16:20;26.00;;;13.40;;
6127;SDS011;7073;42.672;23.256;2024-02-28T08:18:46;29.67;;;12.60;;
6127;SDS011;7073;42.672;23.256;2024-02-28T08:21:21;25.40;;;14.13;;
6127;SDS011;7073;42.672;23.256;2024-02-28T08:23:51;26.65;;;13.52;;
6127;SDS011;7073;42.672;23.256;2024-02-28T08:26:25;27.05;;;13.95;;
6127;SDS011;7073;42.672;23.256;2024-02-28T08:28:57;25.45;;;13.25;;
6127;SDS011;7073;42.672;23.256;2024-02-28T08:31:26;29.33;;;13.75;;
6127;SDS011;7073;42.672;23.256;2024-02-28T08:33:53;28.75;;;13.60;;
6127;SDS011;7073;42.672;23.256;2024-02-28T08:36:21;26.33;;;12.93;;
6127;SDS011;7073;42.672;23.256;2024-02-28T08:38:50;27.20;;;13.48;;
6127;SDS011;7073;42.672;23.256;2024-02-28T08:41:20;30.45;;;13.75;;
6127;SDS011;7073;42.672;23.256;2024-02-28T08:44:05;28.48;;;13.60;;
6127;SDS011;7073;42.672;23.256;2024-02-28T08:46:40;26.60;;;13.18;;
6127;SDS011;7073;42.672;23.256;2024-02-28T08:49:13;27.27;;;12.85;;
6127;SDS011;7073;42.672;23.256;2024-02-28T08:51:40;27.55;;;13.93;;
6127;SDS011;7073;42.672;23.256;2024-02-28T08:54:07;31.08;;;14.02;;
6127;SDS011;7073;42.672;23.256;2024-02-28T08:56:35;27.40;;;13.68;;
6127;SDS011;7073;42.672;23.256;2024-02-28T08:59:04;25.38;;;12.73;;
6127;SDS011;7073;42.672;23.256;2024-02-28T09:01:33;25.48;;;13.75;;
6127;SDS011;7073;42.672;23.256;2024-02-28T09:04:01;27.73;;;13.23;;
6127;SDS011;7073;42.672;23.256;2024-02-28T09:06:29;27.13;;;14.20;;
6127;SDS011;7073;42.672;23.256;2024-02-28T09:08:55;28.33;;;13.82;;
6127;SDS011;7073;42.672;23.256;2024-02-28T09:11:22;30.70;;;15.63;;
6127;SDS011;7073;42.672;23.256;2024-02-28T09:13:50;32.35;;;14.07;;
6127;SDS011;7073;42.672;23.256;2024-02-28T09:16:19;26.65;;;13.40;;
6127;SDS011;7073;42.672;23.256;2024-02-28T09:18:46;34.28;;;14.90;;
6127;SDS011;7073;42.672;23.256;2024-02-28T09:21:12;29.05;;;14.80;;
6127;SDS011;7073;42.672;23.256;2024-02-28T09:23:40;29.65;;;15.18;;
6127;SDS011;7073;42.672;23.256;2024-02-28T09:26:07;32.95;;;15.35;;
6127;SDS011;7073;42.672;23.256;2024-02-28T09:28:35;29.95;;;14.43;;
6127;SDS011;7073;42.672;23.256;2024-02-28T09:31:02;34.70;;;14.00;;
6127;SDS011;7073;42.672;23.256;2024-02-28T09:33:30;33.20;;;14.40;;
6127;SDS011;7073;42.672;23.256;2024-02-28T09:35:57;25.85;;;13.40;;
6127;SDS011;7073;42.672;23.256;2024-02-28T09:38:24;27.58;;;13.32;;
6127;SDS011;7073;42.672;23.256;2024-02-28T09:40:51;29.88;;;12.88;;
6127;SDS011;7073;42.672;23.256;2024-02-28T09:43:19;29.77;;;13.95;;
6127;SDS011;7073;42.672;23.256;2024-02-28T09:45:48;27.15;;;13.63;;
6127;SDS011;7073;42.672;23.256;2024-02-28T09:48:15;29.00;;;13.73;;
6127;SDS011;7073;42.672;23.256;2024-02-28T09:50:44;28.83;;;15.35;;
6127;SDS011;7073;42.672;23.256;2024-02-28T09:53:11;28.05;;;13.70;;
6127;SDS011;7073;42.672;23.256;2024-02-28T09:55:38;25.17;;;13.05;;
6127;SDS011;7073;42.672;23.256;2024-02-28T09:58:05;23.20;;;12.50;;
6127;SDS011;7073;42.672;23.256;2024-02-28T10:00:34;25.48;;;13.10;;
6127;SDS011;7073;42.672;23.256;2024-02-28T10:03:01;29.80;;;13.77;;
6127;SDS011;7073;42.672;23.256;2024-02-28T10:05:30;24.73;;;13.52;;
6127;SDS011;7073;42.672;23.256;2024-02-28T10:08:04;30.58;;;14.00;;
6127;SDS011;7073;42.672;23.256;2024-02-28T10:10:44;35.90;;;15.70;;
6127;SDS011;7073;42.672;23.256;2024-02-28T10:13:13;28.65;;;15.32;;
6127;SDS011;7073;42.672;23.256;2024-02-28T10:18:07;26.38;;;13.48;;
6127;SDS011;7073;42.672;23.256;2024-02-28T10:20:37;33.47;;;15.65;;
6127;SDS011;7073;42.672;23.256;2024-02-28T10:23:12;27.13;;;14.68;;
6127;SDS011;7073;42.672;23.256;2024-02-28T10:25:46;33.88;;;15.35;;
6127;SDS011;7073;42.672;23.256;2024-02-28T10:28:17;40.88;;;16.33;;
6127;SDS011;7073;42.672;23.256;2024-02-28T10:30:46;32.63;;;15.13;;
6127;SDS011;7073;42.672;23.256;2024-02-28T10:33:29;26.60;;;13.38;;
6127;SDS011;7073;42.672;23.256;2024-02-28T10:36:09;32.30;;;13.50;;
6127;SDS011;7073;42.672;23.256;2024-02-28T10:38:39;30.75;;;15.13;;
6127;SDS011;7073;42.672;23.256;2024-02-28T10:41:24;29.15;;;14.32;;
6127;SDS011;7073;42.672;23.256;2024-02-28T10:44:23;30.73;;;13.18;;
6127;SDS011;7073;42.672;23.256;2024-02-28T10:56:18;19.30;;;8.73;;
6127;SDS011;7073;42.672;23.256;2024-02-28T10:58:49;19.52;;;10.15;;
6127;SDS011;7073;42.672;23.256;2024-02-28T11:01:19;20.98;;;10.98;;
6127;SDS011;7073;42.672;23.256;2024-02-28T11:03:46;19.75;;;11.13;;
6127;SDS011;7073;42.672;23.256;2024-02-28T11:06:18;22.77;;;10.73;;
6127;SDS011;7073;42.672;23.256;2024-02-28T11:08:46;20.35;;;8.98;;
6127;SDS011;7073;42.672;23.256;2024-02-28T11:11:20;21.10;;;9.98;;
6127;SDS011;7073;42.672;23.256;2024-02-28T11:13:51;20.67;;;10.95;;
6127;SDS011;7073;42.672;23.256;2024-02-28T11:16:25;20.55;;;11.13;;
6127;SDS011;7073;42.672;23.256;2024-02-28T11:18:54;21.02;;;10.50;;
6127;SDS011;7073;42.672;23.256;2024-02-28T11:21:24;20.27;;;9.80;;
6127;SDS011;7073;42.672;23.256;2024-02-28T11:23:57;18.10;;;9.95;;
6127;SDS011;7073;42.672;23.256;2024-02-28T11:26:28;21.02;;;9.82;;
6127;SDS011;7073;42.672;23.256;2024-02-28T11:28:59;17.98;;;9.68;;
6127;SDS011;7073;42.672;23.256;2024-02-28T11:31:28;21.02;;;10.38;;
6127;SDS011;7073;42.672;23.256;2024-02-28T11:33:55;21.75;;;8.88;;
6127;SDS011;7073;42.672;23.256;2024-02-28T11:36:25;17.75;;;7.88;;
6127;SDS011;7073;42.672;23.256;2024-02-28T11:38:53;21.92;;;10.07;;
6127;SDS011;7073;42.672;23.256;2024-02-28T11:41:25;19.70;;;8.85;;
6127;SDS011;7073;42.672;23.256;2024-02-28T11:43:55;18.08;;;8.20;;
6127;SDS011;7073;42.672;23.256;2024-02-28T11:46:23;14.70;;;8.20;;
6127;SDS011;7073;42.672;23.256;2024-02-28T11:48:52;16.48;;;7.97;;
6127;SDS011;7073;42.672;23.256;2024-02-28T11:51:19;17.15;;;8.48;;
6127;SDS011;7073;42.672;23.256;2024-02-28T11:53:46;15.93;;;7.47;;
6127;SDS011;7073;42.672;23.256;2024-02-28T11:56:14;12.77;;;6.60;;
6127;SDS011;7073;42.672;23.256;2024-02-28T11:58:49;17.70;;;6.78;;
6127;SDS011;7073;42.672;23.256;2024-02-28T12:01:39;17.98;;;7.78;;
6127;SDS011;7073;42.672;23.256;2024-02-28T12:04:11;14.90;;;7.53;;
6127;SDS011;7073;42.672;23.256;2024-02-28T12:06:39;10.90;;;5.93;;
6127;SDS011;7073;42.672;23.256;2024-02-28T12:09:36;14.50;;;5.63;;
6127;SDS011;7073;42.672;23.256;2024-02-28T12:24:55;20.60;;;7.47;;
6127;SDS011;7073;42.672;23.256;2024-02-28T12:27:35;8.52;;;4.20;;
6127;SDS011;7073;42.672;23.256;2024-02-28T12:30:07;10.80;;;5.43;;
6127;SDS011;7073;42.672;23.256;2024-02-28T12:32:53;12.48;;;5.63;;
6127;SDS011;7073;42.672;23.256;2024-02-28T12:39:12;10.88;;;6.03;;
6127;SDS011;7073;42.672;23.256;2024-02-28T12:42:14;13.82;;;5.57;;
6127;SDS011;7073;42.672;23.256;2024-02-28T12:44:44;11.85;;;4.95;;
6127;SDS011;7073;42.672;23.256;2024-02-28T12:47:11;11.25;;;5.13;;
6127;SDS011;7073;42.672;23.256;2024-02-28T12:49:40;12.25;;;4.97;;
6127;SDS011;7073;42.672;23.256;2024-02-28T12:52:08;8.57;;;3.70;;
6127;SDS011;7073;42.672;23.256;2024-02-28T12:57:56;12.30;;;4.70;;
6127;SDS011;7073;42.672;23.256;2024-02-28T13:00:38;9.10;;;4.28;;
6127;SDS011;7073;42.672;23.256;2024-02-28T13:03:09;21.23;;;12.63;;
6127;SDS011;7073;42.672;23.256;2024-02-28T13:05:43;8.38;;;5.03;;
6127;SDS011;7073;42.672;23.256;2024-02-28T13:08:16;8.35;;;4.93;;
6127;SDS011;7073;42.672;23.256;2024-02-28T13:10:55;13.48;;;4.57;;
6127;SDS011;7073;42.672;23.256;2024-02-28T13:14:05;9.63;;;5.10;;
6127;SDS011;7073;42.672;23.256;2024-02-28T13:16:47;16.20;;;5.65;;
6127;SDS011;7073;42.672;23.256;2024-02-28T13:19:40;11.63;;;5.88;;
6127;SDS011;7073;42.672;23.256;2024-02-28T13:22:30;15.15;;;5.78;;
6127;SDS011;7073;42.672;23.256;2024-02-28T13:25:24;14.48;;;6.00;;
6127;SDS011;7073;42.672;23.256;2024-02-28T13:28:09;14.68;;;5.80;;
6127;SDS011;7073;42.672;23.256;2024-02-28T13:39:47;11.43;;;6.43;;
6127;SDS011;7073;42.672;23.256;2024-02-28T13:42:17;13.30;;;7.30;;
6127;SDS011;7073;42.672;23.256;2024-02-28T13:45:07;12.20;;;6.00;;
6127;SDS011;7073;42.672;23.256;2024-02-28T13:47:51;14.65;;;7.28;;
6127;SDS011;7073;42.672;23.256;2024-02-28T13:50:47;13.27;;;5.85;;
6127;SDS011;7073;42.672;23.256;2024-02-28T13:53:32;11.45;;;5.78;;
6127;SDS011;7073;42.672;23.256;2024-02-28T14:27:22;16.35;;;6.40;;
6127;SDS011;7073;42.672;23.256;2024-02-28T14:30:08;14.70;;;5.85;;
6127;SDS011;7073;42.672;23.256;2024-02-28T14:32:57;20.13;;;8.32;;
6127;SDS011;7073;42.672;23.256;2024-02-28T14:39:29;20.75;;;8.18;;
6127;SDS011;7073;42.672;23.256;2024-02-28T14:42:07;32.13;;;10.65;;
6127;SDS011;7073;42.672;23.256;2024-02-28T15:06:03;15.73;;;7.22;;
6127;SDS011;7073;42.672;23.256;2024-02-28T15:08:44;13.27;;;6.80;;
6127;SDS011;7073;42.672;23.256;2024-02-28T15:11:14;15.63;;;7.25;;
6127;SDS011;7073;42.672;23.256;2024-02-28T15:13:46;18.55;;;7.40;;
6127;SDS011;7073;42.672;23.256;2024-02-28T15:16:35;16.58;;;7.35;;
6127;SDS011;7073;42.672;23.256;2024-02-28T15:19:19;21.60;;;7.97;;
6127;SDS011;7073;42.672;23.256;2024-02-28T15:21:58;17.33;;;7.90;;
6127;SDS011;7073;42.672;23.256;2024-02-28T15:24:59;19.38;;;7.22;;
6127;SDS011;7073;42.672;23.256;2024-02-28T15:27:49;19.17;;;7.45;;
6127;SDS011;7073;42.672;23.256;2024-02-28T15:30:28;23.08;;;8.27;;
6127;SDS011;7073;42.672;23.256;2024-02-28T15:51:22;12.70;;;4.75;;
6127;SDS011;7073;42.672;23.256;2024-02-28T15:54:11;13.55;;;6.32;;
6127;SDS011;7073;42.672;23.256;2024-02-28T15:59:52;8.23;;;4.18;;
6127;SDS011;7073;42.672;23.256;2024-02-28T16:02:26;8.15;;;4.28;;
6127;SDS011;7073;42.672;23.256;2024-02-28T16:04:53;14.88;;;3.38;;
6127;SDS011;7073;42.672;23.256;2024-02-28T16:07:24;5.75;;;2.45;;
6127;SDS011;7073;42.672;23.256;2024-02-28T16:15:48;8.32;;;2.90;;
6127;SDS011;7073;42.672;23.256;2024-02-28T16:18:49;6.53;;;2.50;;
6127;SDS011;7073;42.672;23.256;2024-02-28T16:21:20;2.97;;;1.30;;
6127;SDS011;7073;42.672;23.256;2024-02-28T17:19:51;18.25;;;7.57;;
6127;SDS011;7073;42.672;23.256;2024-02-28T17:22:47;16.27;;;7.03;;
6127;SDS011;7073;42.672;23.256;2024-02-28T17:25:34;12.15;;;5.75;;
6127;SDS011;7073;42.672;23.256;2024-02-28T17:28:10;22.38;;;6.63;;
6127;SDS011;7073;42.672;23.256;2024-02-28T17:31:06;17.65;;;6.50;;
6127;SDS011;7073;42.672;23.256;2024-02-28T17:40:36;15.00;;;6.75;;
6127;SDS011;7073;42.672;23.256;2024-02-28T17:43:31;13.23;;;6.03;;
6127;SDS011;7073;42.672;23.256;2024-02-28T17:49:38;12.02;;;6.38;;
6127;SDS011;7073;42.672;23.256;2024-02-28T17:52:17;16.77;;;6.30;;
6127;SDS011;7073;42.672;23.256;2024-02-28T17:55:06;13.98;;;6.35;;
6127;SDS011;7073;42.672;23.256;2024-02-28T18:01:26;17.70;;;5.68;;
6127;SDS011;7073;42.672;23.256;2024-02-28T18:04:00;10.52;;;4.72;;
6127;SDS011;7073;42.672;23.256;2024-02-28T18:06:26;11.43;;;4.93;;
6127;SDS011;7073;42.672;23.256;2024-02-28T18:11:49;10.30;;;5.25;;
6127;SDS011;7073;42.672;23.256;2024-02-28T18:14:18;11.20;;;4.93;;
6127;SDS011;7073;42.672;23.256;2024-02-28T18:16:48;16.33;;;6.15;;
6127;SDS011;7073;42.672;23.256;2024-02-28T18:19:17;10.80;;;4.80;;
6127;SDS011;7073;42.672;23.256;2024-02-28T18:21:45;13.15;;;4.88;;
6127;SDS011;7073;42.672;23.256;2024-02-28T18:24:12;10.15;;;4.40;;
6127;SDS011;7073;42.672;23.256;2024-02-28T18:26:39;9.77;;;4.05;;
6127;SDS011;7073;42.672;23.256;2024-02-28T18:29:10;8.80;;;4.70;;
6127;SDS011;7073;42.672;23.256;2024-02-28T18:31:36;11.82;;;4.40;;
6127;SDS011;7073;42.672;23.256;2024-02-28T18:34:36;8.93;;;4.18;;
6127;SDS011;7073;42.672;23.256;2024-02-28T18:37:43;11.10;;;4.30;;
6127;SDS011;7073;42.672;23.256;2024-02-28T18:40:19;8.40;;;4.05;;
6127;SDS011;7073;42.672;23.256;2024-02-28T18:42:55;9.43;;;4.10;;
6127;SDS011;7073;42.672;23.256;2024-02-28T18:48:47;8.95;;;4.82;;
6127;SDS011;7073;42.672;23.256;2024-02-28T18:51:35;10.02;;;5.07;;
6127;SDS011;7073;42.672;23.256;2024-02-28T19:03:17;20.13;;;9.43;;
6127;SDS011;7073;42.672;23.256;2024-02-28T19:05:57;16.40;;;5.50;;
6127;SDS011;7073;42.672;23.256;2024-02-28T19:08:26;14.02;;;5.82;;
6127;SDS011;7073;42.672;23.256;2024-02-28T19:11:36;15.88;;;8.07;;
6127;SDS011;7073;42.672;23.256;2024-02-28T19:14:03;14.15;;;6.75;;
6127;SDS011;7073;42.672;23.256;2024-02-28T19:16:29;17.60;;;9.13;;
6127;SDS011;7073;42.672;23.256;2024-02-28T19:18:56;20.55;;;8.32;;
6127;SDS011;7073;42.672;23.256;2024-02-28T19:24:44;13.10;;;6.18;;
6127;SDS011;7073;42.672;23.256;2024-02-28T19:27:12;17.83;;;7.32;;
6127;SDS011;7073;42.672;23.256;2024-02-28T19:29:39;18.08;;;7.78;;
6127;SDS011;7073;42.672;23.256;2024-02-28T19:38:10;26.10;;;10.13;;
6127;SDS011;7073;42.672;23.256;2024-02-28T19:40:39;23.35;;;11.30;;
6127;SDS011;7073;42.672;23.256;2024-02-28T19:49:20;24.00;;;12.68;;
6127;SDS011;7073;42.672;23.256;2024-02-28T21:57:53;13.45;;;6.43;;
6127;SDS011;7073;42.672;23.256;2024-02-28T22:00:21;12.60;;;6.85;;
6127;SDS011;7073;42.672;23.256;2024-02-28T22:05:51;16.10;;;7.22;;
6127;SDS011;7073;42.672;23.256;2024-02-28T22:08:23;21.23;;;8.35;;
6127;SDS011;7073;42.672;23.256;2024-02-28T22:11:03;17.70;;;9.52;;
6127;SDS011;7073;42.672;23.256;2024-02-28T22:13:54;21.98;;;9.27;;
6127;SDS011;7073;42.672;23.256;2024-02-28T22:22:45;19.33;;;8.02;;
6127;SDS011;7073;42.672;23.256;2024-02-28T22:28:40;15.07;;;7.80;;
6127;SDS011;7073;42.672;23.256;2024-02-28T22:31:11;27.70;;;10.85;;
6127;SDS011;7073;42.672;23.256;2024-02-28T22:33:38;22.98;;;11.13;;
6127;SDS011;7073;42.672;23.256;2024-02-28T22:39:46;22.33;;;11.30;;
6127;SDS011;7073;42.672;23.256;2024-02-28T22:42:13;65.50;;;28.25;;
6127;SDS011;7073;42.672;23.256;2024-02-28T22:54:10;56.00;;;23.08;;
6127;SDS011;7073;42.672;23.256;2024-02-28T22:56:40;31.40;;;14.32;;
6127;SDS011;7073;42.672;23.256;2024-02-28T22:59:06;44.50;;;17.75;;
6127;SDS011;7073;42.672;23.256;2024-02-28T23:01:34;45.05;;;19.83;;
6127;SDS011;7073;42.672;23.256;2024-02-28T23:04:00;29.40;;;14.40;;
6127;SDS011;7073;42.672;23.256;2024-02-28T23:06:28;22.85;;;11.88;;
6127;SDS011;7073;42.672;23.256;2024-02-28T23:14:53;12.73;;;5.15;;
6127;SDS011;7073;42.672;23.256;2024-02-28T23:20:43;16.73;;;7.60;;
6127;SDS011;7073;42.672;23.256;2024-02-28T23:24:04;14.88;;;8.05;;
6127;SDS011;7073;42.672;23.256;2024-02-28T23:26:54;17.10;;;9.00;;
6127;SDS011;7073;42.672;23.256;2024-02-28T23:29:21;19.27;;;9.27;;
6127;SDS011;7073;42.672;23.256;2024-02-28T23:31:49;17.45;;;7.60;;
6127;SDS011;7073;42.672;23.256;2024-02-28T23:34:16;15.07;;;6.28;;
6127;SDS011;7073;42.672;23.256;2024-02-28T23:36:44;12.20;;;6.40;;
6127;SDS011;7073;42.672;23.256;2024-02-28T23:39:29;11.63;;;6.35;;
6127;SDS011;7073;42.672;23.256;2024-02-28T23:48:53;15.48;;;6.85;;
6127;SDS011;7073;42.672;23.256;2024-02-28T23:51:21;21.02;;;7.50;;
6127;SDS011;7073;42.672;23.256;2024-02-28T23:54:09;16.83;;;7.57;;
